createdAt,value
2019-04-10T00:00:45.969Z,983.42
2019-04-10T00:01:45.800Z,983.41
2019-04-10T00:02:45.953Z,983.43
2019-04-10T00:03:46.205Z,983.4
2019-04-10T00:04:45.772Z,983.39
2019-04-10T00:05:45.825Z,983.39
2019-04-10T00:06:45.915Z,983.39
2019-04-10T00:07:45.861Z,983.37
2019-04-10T00:08:46.288Z,983.38
2019-04-10T00:09:45.759Z,983.38
2019-04-10T00:10:45.851Z,983.4
2019-04-10T00:11:45.744Z,983.4
2019-04-10T00:12:45.744Z,983.4
2019-04-10T00:13:45.745Z,983.39
2019-04-10T00:14:45.745Z,983.39
2019-04-10T00:15:46.471Z,983.38
2019-04-10T00:16:46.665Z,983.39
2019-04-10T00:17:45.723Z,983.4
2019-04-10T00:18:46.340Z,983.39
2019-04-10T00:19:45.712Z,983.36
2019-04-10T00:20:46.876Z,983.37
2019-04-10T00:21:45.708Z,983.32
2019-04-10T00:22:46.521Z,983.35
2019-04-10T00:23:45.704Z,983.32
2019-04-10T00:24:46.240Z,983.33
2019-04-10T00:25:45.734Z,983.31
2019-04-10T00:26:45.893Z,983.31
2019-04-10T00:27:45.690Z,983.27
2019-04-10T00:28:45.697Z,983.29
2019-04-10T00:29:46.507Z,983.3
2019-04-10T00:30:45.672Z,983.29
2019-04-10T00:31:46.574Z,983.28
2019-04-10T00:32:45.897Z,983.31
2019-04-10T00:33:45.668Z,983.29
2019-04-10T00:34:45.676Z,983.32
2019-04-10T00:35:45.790Z,983.3
2019-04-10T00:36:45.691Z,983.31
2019-04-10T00:37:45.650Z,983.32
2019-04-10T00:38:46.191Z,983.29
2019-04-10T00:39:46.542Z,983.32
2019-04-10T00:40:45.834Z,983.33
2019-04-10T00:41:46.157Z,983.36
2019-04-10T00:42:45.631Z,983.33
2019-04-10T00:43:46.791Z,983.35
2019-04-10T00:44:45.905Z,983.34
2019-04-10T00:45:45.951Z,983.34
2019-04-10T00:46:46.463Z,983.31
2019-04-10T00:47:45.624Z,983.34
2019-04-10T00:48:45.609Z,983.34
2019-04-10T00:49:46.113Z,983.35
2019-04-10T00:50:46.524Z,983.32
2019-04-10T00:51:45.821Z,983.35
2019-04-10T00:52:46.192Z,983.34
2019-04-10T00:53:45.634Z,983.35
2019-04-10T00:54:45.587Z,983.31
2019-04-10T00:55:46.097Z,983.36
2019-04-10T00:56:45.586Z,983.32
2019-04-10T00:57:45.641Z,983.34
2019-04-10T00:58:45.825Z,983.31
2019-04-10T00:59:45.571Z,983.28
2019-04-10T01:00:45.603Z,983.29
2019-04-10T01:01:45.746Z,983.32
2019-04-10T01:02:45.559Z,983.33
2019-04-10T01:03:47.148Z,983.31
2019-04-10T01:04:46.640Z,983.33
2019-04-10T01:05:45.545Z,983.29
2019-04-10T01:06:46.285Z,983.29
2019-04-10T01:07:45.914Z,983.25
2019-04-10T01:08:45.737Z,983.26
2019-04-10T01:09:45.800Z,983.24
2019-04-10T01:10:46.275Z,983.25
2019-04-10T01:11:45.672Z,983.24
2019-04-10T01:12:45.986Z,983.25
2019-04-10T01:13:45.563Z,983.25
2019-04-10T01:14:45.666Z,983.2
2019-04-10T01:15:45.506Z,983.22
2019-04-10T01:16:45.503Z,983.19
2019-04-10T01:17:46.322Z,983.21
2019-04-10T01:18:45.735Z,983.2
2019-04-10T01:19:45.497Z,983.19
2019-04-10T01:20:45.975Z,983.19
2019-04-10T01:21:46.404Z,983.17
2019-04-10T01:22:45.574Z,983.18
2019-04-10T01:23:45.478Z,983.17
2019-04-10T01:24:46.057Z,983.18
2019-04-10T01:25:46.436Z,983.16
2019-04-10T01:26:45.546Z,983.17
2019-04-10T01:27:45.463Z,983.17
2019-04-10T01:28:45.457Z,983.18
2019-04-10T01:29:46.095Z,983.17
2019-04-10T01:30:46.482Z,983.16
2019-04-10T01:31:45.540Z,983.16
2019-04-10T01:32:45.443Z,983.13
2019-04-10T01:33:46.095Z,983.14
2019-04-10T01:34:45.540Z,983.13
2019-04-10T01:35:45.430Z,983.15
2019-04-10T01:36:45.980Z,983.13
2019-04-10T01:37:51.756Z,983.16
2019-04-10T01:38:46.172Z,983.15
2019-04-10T01:39:46.402Z,983.14
2019-04-10T01:40:45.563Z,983.1
2019-04-10T01:41:45.403Z,983.12
2019-04-10T01:42:52.701Z,983.16
2019-04-10T01:43:45.397Z,983.12
2019-04-10T01:44:45.392Z,983.12
2019-04-10T01:45:45.949Z,983.12
2019-04-10T01:46:46.490Z,983.15
2019-04-10T01:47:45.618Z,983.12
2019-04-10T01:48:45.379Z,983.09
2019-04-10T01:49:46.803Z,983.09
2019-04-10T01:50:46.209Z,983.1
2019-04-10T01:51:45.606Z,983.08
2019-04-10T01:52:45.368Z,983.09
2019-04-10T01:53:46.132Z,983.09
2019-04-10T01:54:45.674Z,983.11
2019-04-10T01:55:45.359Z,983.11
2019-04-10T01:56:46.022Z,983.1
2019-04-10T01:57:46.307Z,983.12
2019-04-10T01:58:45.470Z,983.11
2019-04-10T01:59:45.876Z,983.09
2019-04-10T02:00:45.946Z,983.09
2019-04-10T02:01:45.326Z,983.07
2019-04-10T02:02:45.485Z,983.12
2019-04-10T02:03:45.311Z,983.07
2019-04-10T02:04:45.311Z,983.07
2019-04-10T02:05:45.359Z,983.06
2019-04-10T02:06:45.431Z,983.09
2019-04-10T02:07:57.644Z,983.08
2019-04-10T02:08:45.743Z,983.08
2019-04-10T02:09:45.843Z,983.08
2019-04-10T02:10:45.291Z,983.05
2019-04-10T02:11:46.048Z,983.04
2019-04-10T02:12:45.274Z,983.04
2019-04-10T02:13:45.270Z,983.01
2019-04-10T02:14:45.264Z,983.05
2019-04-10T02:15:46.060Z,983.04
2019-04-10T02:16:45.296Z,983.01
2019-04-10T02:17:45.251Z,983.05
2019-04-10T02:18:45.718Z,983.01
2019-04-10T02:19:46.085Z,983
2019-04-10T02:20:45.243Z,983
2019-04-10T02:21:45.239Z,982.98
2019-04-10T02:22:45.821Z,983
2019-04-10T02:23:45.314Z,983.03
2019-04-10T02:24:45.230Z,983.03
2019-04-10T02:25:45.216Z,983
2019-04-10T02:26:45.620Z,983.02
2019-04-10T02:27:45.207Z,982.96
2019-04-10T02:28:45.202Z,982.96
2019-04-10T02:29:46.058Z,982.92
2019-04-10T02:30:45.957Z,982.96
2019-04-10T02:31:46.247Z,982.95
2019-04-10T02:32:47.977Z,982.93
2019-04-10T02:33:45.179Z,982.95
2019-04-10T02:34:46.531Z,982.94
2019-04-10T02:35:45.516Z,982.94
2019-04-10T02:36:46.774Z,982.93
2019-04-10T02:37:45.166Z,982.9
2019-04-10T02:38:58.718Z,982.94
2019-04-10T02:39:55.857Z,982.94
2019-04-10T02:40:52.947Z,982.93
2019-04-10T02:41:52.273Z,982.92
2019-04-10T02:42:51.780Z,982.93
2019-04-10T02:43:51.773Z,982.9
2019-04-10T02:44:52.185Z,982.95
2019-04-10T02:45:51.913Z,982.95
2019-04-10T02:46:52.286Z,982.93
2019-04-10T02:47:52.818Z,982.93
2019-04-10T02:48:52.017Z,982.94
2019-04-10T02:49:52.170Z,982.97
2019-04-10T02:50:52.953Z,982.97
2019-04-10T02:51:51.986Z,982.98
2019-04-10T02:52:51.733Z,982.96
2019-04-10T02:53:53.114Z,982.97
2019-04-10T02:54:53.561Z,982.94
2019-04-10T02:55:53.437Z,982.95
2019-04-10T02:56:52.744Z,982.98
2019-04-10T02:57:51.917Z,982.98
2019-04-10T02:58:51.746Z,982.94
2019-04-10T02:59:51.694Z,982.98
2019-04-10T03:00:53.937Z,983.01
2019-04-10T03:01:51.907Z,982.98
2019-04-10T03:02:52.058Z,983.01
2019-04-10T03:03:52.536Z,982.98
2019-04-10T03:04:53.169Z,982.97
2019-04-10T03:05:51.663Z,982.98
2019-04-10T03:06:53.116Z,982.99
2019-04-10T03:07:52.574Z,983.02
2019-04-10T03:09:06.934Z,983.03
2019-04-10T03:10:32.043Z,982.99
2019-04-10T03:11:26.412Z,983.01
2019-04-10T03:12:24.575Z,983.01
2019-04-10T03:13:26.800Z,983.02
2019-04-10T03:14:26.233Z,983.01
2019-04-10T03:15:25.150Z,982.98
2019-04-10T03:16:24.509Z,982.98
2019-04-10T03:17:24.503Z,982.93
2019-04-10T03:18:25.098Z,983.01
2019-04-10T03:19:25.426Z,983
2019-04-10T03:20:24.661Z,983.01
2019-04-10T03:21:24.494Z,983
2019-04-10T03:22:24.927Z,983.02
2019-04-10T03:23:25.194Z,983.02
2019-04-10T03:24:25.258Z,982.97
2019-04-10T03:25:25.289Z,982.98
2019-04-10T03:26:25.621Z,982.93
2019-04-10T03:27:24.454Z,983
2019-04-10T03:28:24.953Z,982.99
2019-04-10T03:29:24.453Z,983.05
2019-04-10T03:30:24.708Z,983.03
2019-04-10T03:31:25.378Z,983.03
2019-04-10T03:32:28.241Z,983.04
2019-04-10T03:33:27.294Z,983.04
2019-04-10T03:34:25.963Z,983.01
2019-04-10T03:35:24.837Z,983.03
2019-04-10T03:36:24.417Z,983.01
2019-04-10T03:37:24.453Z,983.05
2019-04-10T03:38:24.403Z,983
2019-04-10T03:39:24.407Z,983.01
2019-04-10T03:40:24.415Z,982.99
2019-04-10T03:41:24.393Z,983.04
2019-04-10T03:42:25.241Z,983.01
2019-04-10T03:43:24.385Z,983.03
2019-04-10T03:44:24.965Z,983.03
2019-04-10T03:45:24.466Z,983.02
2019-04-10T03:46:24.364Z,983.07
2019-04-10T03:47:25.110Z,983.04
2019-04-10T03:48:25.163Z,983.04
2019-04-10T03:49:25.446Z,983.08
2019-04-10T03:50:24.347Z,983.06
2019-04-10T03:51:24.825Z,983.09
2019-04-10T03:52:25.281Z,983.13
2019-04-10T03:53:24.649Z,983.14
2019-04-10T03:54:24.325Z,983.13
2019-04-10T03:55:25.117Z,983.16
2019-04-10T03:56:25.478Z,983.12
2019-04-10T03:57:24.649Z,983.15
2019-04-10T03:58:25.129Z,983.2
2019-04-10T03:59:24.395Z,983.14
2019-04-10T04:00:24.310Z,983.13
2019-04-10T04:01:25.056Z,983.16
2019-04-10T04:02:24.287Z,983.17
2019-04-10T04:03:24.580Z,983.19
2019-04-10T04:04:24.278Z,983.17
2019-04-10T04:05:24.287Z,983.17
2019-04-10T04:06:24.280Z,983.17
2019-04-10T04:07:26.037Z,983.14
2019-04-10T04:08:24.268Z,983.17
2019-04-10T04:09:24.256Z,983.16
2019-04-10T04:10:24.589Z,983.17
2019-04-10T04:11:24.242Z,983.12
2019-04-10T04:12:24.236Z,983.15
2019-04-10T04:13:24.238Z,983.16
2019-04-10T04:14:24.285Z,983.14
2019-04-10T04:15:24.223Z,983.11
2019-04-10T04:16:24.707Z,983.15
2019-04-10T04:17:24.249Z,983.13
2019-04-10T04:18:24.852Z,983.14
2019-04-10T04:19:24.200Z,983.13
2019-04-10T04:20:24.195Z,983.13
2019-04-10T04:21:24.207Z,983.13
2019-04-10T04:22:24.983Z,983.16
2019-04-10T04:23:24.182Z,983.15
2019-04-10T04:24:25.342Z,983.15
2019-04-10T04:25:24.170Z,983.15
2019-04-10T04:26:25.221Z,983.18
2019-04-10T04:27:25.005Z,983.21
2019-04-10T04:28:24.154Z,983.22
2019-04-10T04:29:24.695Z,983.15
2019-04-10T04:30:24.646Z,983.17
2019-04-10T04:31:24.919Z,983.18
2019-04-10T04:32:24.134Z,983.15
2019-04-10T04:33:24.130Z,983.19
2019-04-10T04:34:25.004Z,983.12
2019-04-10T04:35:24.117Z,983.12
2019-04-10T04:36:24.585Z,983.17
2019-04-10T04:37:24.108Z,983.15
2019-04-10T04:38:24.104Z,983.14
2019-04-10T04:39:26.913Z,983.13
2019-04-10T04:40:24.089Z,983.14
2019-04-10T04:41:25.240Z,983.14
2019-04-10T04:42:24.459Z,983.17
2019-04-10T04:43:25.011Z,983.17
2019-04-10T04:44:24.067Z,983.16
2019-04-10T04:45:24.066Z,983.15
2019-04-10T04:46:24.059Z,983.17
2019-04-10T04:47:24.423Z,983.19
2019-04-10T04:48:24.288Z,983.2
2019-04-10T04:49:24.299Z,983.2
2019-04-10T04:50:24.683Z,983.26
2019-04-10T04:51:25.784Z,983.23
2019-04-10T04:52:24.057Z,983.29
2019-04-10T04:53:24.021Z,983.26
2019-04-10T04:54:24.013Z,983.34
2019-04-10T04:55:24.063Z,983.36
2019-04-10T04:56:24.083Z,983.35
2019-04-10T04:57:24.511Z,983.32
2019-04-10T04:58:24.330Z,983.37
2019-04-10T04:59:23.995Z,983.36
2019-04-10T05:00:23.981Z,983.37
2019-04-10T05:01:23.975Z,983.37
2019-04-10T05:02:24.111Z,983.4
2019-04-10T05:03:25.526Z,983.37
2019-04-10T05:04:25.015Z,983.46
2019-04-10T05:05:24.921Z,983.42
2019-04-10T05:06:24.331Z,983.44
2019-04-10T05:07:24.693Z,983.51
2019-04-10T05:08:23.953Z,983.52
2019-04-10T05:09:30.936Z,983.51
2019-04-10T05:10:24.987Z,983.53
2019-04-10T05:11:24.480Z,983.51
2019-04-10T05:12:23.915Z,983.53
2019-04-10T05:13:24.358Z,983.52
2019-04-10T05:14:23.903Z,983.53
2019-04-10T05:15:24.797Z,983.53
2019-04-10T05:16:24.828Z,983.5
2019-04-10T05:17:24.154Z,983.54
2019-04-10T05:18:23.881Z,983.57
2019-04-10T05:19:23.883Z,983.56
2019-04-10T05:20:23.879Z,983.55
2019-04-10T05:21:23.863Z,983.58
2019-04-10T05:22:24.424Z,983.59
2019-04-10T05:23:24.469Z,983.6
2019-04-10T05:24:24.070Z,983.6
2019-04-10T05:25:23.842Z,983.59
2019-04-10T05:26:23.836Z,983.64
2019-04-10T05:27:24.680Z,983.62
2019-04-10T05:28:24.280Z,983.58
2019-04-10T05:29:24.954Z,983.6
2019-04-10T05:30:23.819Z,983.62
2019-04-10T05:31:23.812Z,983.64
2019-04-10T05:32:23.809Z,983.65
2019-04-10T05:33:24.691Z,983.61
2019-04-10T05:34:23.795Z,983.62
2019-04-10T05:35:23.790Z,983.6
2019-04-10T05:36:23.784Z,983.62
2019-04-10T05:37:23.780Z,983.68
2019-04-10T05:38:24.891Z,983.66
2019-04-10T05:39:24.464Z,983.68
2019-04-10T05:40:23.904Z,983.65
2019-04-10T05:41:24.364Z,983.66
2019-04-10T05:42:24.771Z,983.68
2019-04-10T05:43:23.992Z,983.7
2019-04-10T05:44:23.746Z,983.7
2019-04-10T05:45:23.738Z,983.7
2019-04-10T05:46:24.862Z,983.75
2019-04-10T05:47:23.729Z,983.75
2019-04-10T05:48:24.945Z,983.69
2019-04-10T05:49:24.655Z,983.71
2019-04-10T05:50:23.711Z,983.74
2019-04-10T05:51:23.707Z,983.75
2019-04-10T05:52:23.699Z,983.76
2019-04-10T05:53:24.599Z,983.76
2019-04-10T05:54:24.628Z,983.77
2019-04-10T05:55:24.599Z,983.76
2019-04-10T05:56:23.687Z,983.77
2019-04-10T05:57:24.572Z,983.8
2019-04-10T05:58:23.778Z,983.8
2019-04-10T05:59:23.877Z,983.81
2019-04-10T06:00:23.660Z,983.83
2019-04-10T06:01:32.103Z,983.83
2019-04-10T06:02:23.649Z,983.79
2019-04-10T06:03:24.688Z,983.84
2019-04-10T06:04:23.640Z,983.83
2019-04-10T06:05:24.399Z,983.84
2019-04-10T06:06:24.217Z,983.87
2019-04-10T06:07:23.655Z,983.84
2019-04-10T06:08:23.772Z,983.83
2019-04-10T06:09:24.420Z,983.81
2019-04-10T06:10:24.641Z,983.85
2019-04-10T06:11:24.580Z,983.83
2019-04-10T06:12:24.308Z,983.83
2019-04-10T06:13:23.605Z,983.88
2019-04-10T06:14:24.177Z,983.85
2019-04-10T06:15:23.584Z,983.84
2019-04-10T06:16:23.967Z,983.88
2019-04-10T06:17:24.573Z,983.86
2019-04-10T06:18:23.572Z,983.85
2019-04-10T06:19:25.314Z,983.79
2019-04-10T06:20:23.557Z,983.83
2019-04-10T06:21:23.563Z,983.88
2019-04-10T06:22:23.551Z,983.84
2019-04-10T06:23:23.551Z,983.86
2019-04-10T06:24:24.484Z,983.87
2019-04-10T06:25:24.645Z,983.86
2019-04-10T06:26:23.740Z,983.85
2019-04-10T06:27:24.158Z,983.91
2019-04-10T06:28:25.490Z,983.9
2019-04-10T06:29:23.518Z,983.88
2019-04-10T06:30:23.866Z,983.85
2019-04-10T06:31:23.508Z,983.89
2019-04-10T06:32:23.504Z,983.89
2019-04-10T06:33:24.130Z,983.9
2019-04-10T06:34:23.497Z,983.94
2019-04-10T06:35:24.015Z,983.92
2019-04-10T06:36:23.510Z,983.9
2019-04-10T06:37:24.145Z,983.87
2019-04-10T06:38:23.485Z,983.88
2019-04-10T06:39:24.666Z,983.87
2019-04-10T06:40:25.778Z,983.88
2019-04-10T06:41:24.277Z,983.84
2019-04-10T06:42:24.218Z,983.85
2019-04-10T06:43:23.698Z,983.82
2019-04-10T06:44:23.446Z,983.84
2019-04-10T06:45:24.003Z,983.86
2019-04-10T06:46:24.304Z,983.82
2019-04-10T06:47:24.354Z,983.84
2019-04-10T06:48:23.670Z,983.87
2019-04-10T06:49:23.424Z,983.87
2019-04-10T06:50:23.417Z,983.86
2019-04-10T06:51:23.414Z,983.87
2019-04-10T06:52:23.680Z,983.87
2019-04-10T06:53:23.406Z,983.86
2019-04-10T06:54:23.405Z,983.87
2019-04-10T06:55:23.638Z,983.9
2019-04-10T06:56:23.389Z,983.91
2019-04-10T06:57:23.388Z,983.89
2019-04-10T06:58:23.723Z,983.92
2019-04-10T06:59:23.492Z,983.88
2019-04-10T07:00:23.376Z,983.9
2019-04-10T07:01:24.919Z,983.9
2019-04-10T07:02:27.674Z,983.9
2019-04-10T07:03:23.362Z,983.9
2019-04-10T07:04:25.181Z,983.88
2019-04-10T07:05:24.140Z,983.88
2019-04-10T07:06:35.657Z,983.87
2019-04-10T07:07:25.288Z,983.87
2019-04-10T07:08:24.340Z,983.88
2019-04-10T07:09:25.116Z,983.91
2019-04-10T07:10:29.650Z,983.89
2019-04-10T07:11:27.660Z,983.9
2019-04-10T07:12:24.220Z,983.91
2019-04-10T07:13:23.877Z,983.92
2019-04-10T07:14:24.543Z,983.86
2019-04-10T07:15:24.030Z,983.89
2019-04-10T07:16:26.527Z,983.92
2019-04-10T07:17:23.304Z,983.85
2019-04-10T07:18:24.198Z,983.87
2019-04-10T07:19:24.091Z,983.89
2019-04-10T07:20:24.080Z,983.9
2019-04-10T07:21:24.223Z,983.9
2019-04-10T07:22:23.282Z,983.9
2019-04-10T07:23:27.389Z,983.87
2019-04-10T07:24:23.277Z,983.92
2019-04-10T07:25:23.714Z,983.94
2019-04-10T07:26:33.347Z,983.95
2019-04-10T07:27:23.648Z,983.92
2019-04-10T07:28:23.716Z,983.94
2019-04-10T07:29:26.582Z,983.93
2019-04-10T07:30:26.001Z,983.95
2019-04-10T07:31:23.498Z,983.95
2019-04-10T07:32:24.305Z,983.97
2019-04-10T07:33:23.235Z,983.95
2019-04-10T07:34:25.475Z,983.97
2019-04-10T07:35:23.660Z,984
2019-04-10T07:36:23.223Z,984.03
2019-04-10T07:37:24.384Z,984.07
2019-04-10T07:38:23.210Z,984.01
2019-04-10T07:39:25.953Z,984.05
2019-04-10T07:40:23.201Z,984.07
2019-04-10T07:41:25.686Z,984.05
2019-04-10T07:42:28.305Z,984.05
2019-04-10T07:43:27.117Z,984.06
2019-04-10T07:44:23.185Z,984.08
2019-04-10T07:45:26.254Z,984.05
2019-04-10T07:46:23.987Z,984.07
2019-04-10T07:47:23.723Z,984.08
2019-04-10T07:48:23.166Z,984.11
2019-04-10T07:49:26.595Z,984.12
2019-04-10T07:50:23.153Z,984.15
2019-04-10T07:51:23.153Z,984.18
2019-04-10T07:52:24.055Z,984.18
2019-04-10T07:53:23.158Z,984.17
2019-04-10T07:54:23.146Z,984.18
2019-04-10T07:55:23.818Z,984.14
2019-04-10T07:56:23.128Z,984.15
2019-04-10T07:57:23.122Z,984.2
2019-04-10T07:58:23.577Z,984.2
2019-04-10T07:59:23.115Z,984.2
2019-04-10T08:00:25.029Z,984.2
2019-04-10T08:01:24.091Z,984.2
2019-04-10T08:02:23.287Z,984.19
2019-04-10T08:03:23.100Z,984.24
2019-04-10T08:04:23.095Z,984.21
2019-04-10T08:05:23.088Z,984.21
2019-04-10T08:06:23.473Z,984.19
2019-04-10T08:07:29.349Z,984.22
2019-04-10T08:08:23.597Z,984.27
2019-04-10T08:09:23.069Z,984.29
2019-04-10T08:10:24.160Z,984.26
2019-04-10T08:11:23.989Z,984.26
2019-04-10T08:12:23.323Z,984.25
2019-04-10T08:13:23.050Z,984.28
2019-04-10T08:14:23.772Z,984.28
2019-04-10T08:15:23.123Z,984.28
2019-04-10T08:16:23.228Z,984.26
2019-04-10T08:17:23.904Z,984.28
2019-04-10T08:18:23.276Z,984.28
2019-04-10T08:19:25.157Z,984.28
2019-04-10T08:20:23.984Z,984.33
2019-04-10T08:21:23.919Z,984.3
2019-04-10T08:22:23.210Z,984.33
2019-04-10T08:23:23.857Z,984.31
2019-04-10T08:24:23.728Z,984.35
2019-04-10T08:25:22.998Z,984.32
2019-04-10T08:26:22.989Z,984.33
2019-04-10T08:27:23.793Z,984.32
2019-04-10T08:28:24.041Z,984.35
2019-04-10T08:29:23.873Z,984.32
2019-04-10T08:30:23.730Z,984.39
2019-04-10T08:31:23.841Z,984.39
2019-04-10T08:32:23.645Z,984.36
2019-04-10T08:33:22.963Z,984.37
2019-04-10T08:34:23.720Z,984.33
2019-04-10T08:35:23.054Z,984.39
2019-04-10T08:36:23.495Z,984.31
2019-04-10T08:37:24.050Z,984.34
2019-04-10T08:38:23.958Z,984.36
2019-04-10T08:39:33.082Z,984.32
2019-04-10T08:40:23.183Z,984.35
2019-04-10T08:41:23.344Z,984.34
2019-04-10T08:42:22.920Z,984.39
2019-04-10T08:43:22.918Z,984.41
2019-04-10T08:44:22.915Z,984.38
2019-04-10T08:45:22.915Z,984.36
2019-04-10T08:46:23.915Z,984.39
2019-04-10T08:47:22.903Z,984.39
2019-04-10T08:48:23.999Z,984.39
2019-04-10T08:49:22.980Z,984.42
2019-04-10T08:50:22.904Z,984.49
2019-04-10T08:51:23.459Z,984.45
2019-04-10T08:52:24.133Z,984.48
2019-04-10T08:53:22.880Z,984.48
2019-04-10T08:54:23.801Z,984.5
2019-04-10T08:55:23.941Z,984.45
2019-04-10T08:56:22.867Z,984.49
2019-04-10T08:57:22.865Z,984.48
2019-04-10T08:58:22.980Z,984.49
2019-04-10T08:59:23.669Z,984.45
2019-04-10T09:00:22.856Z,984.51
2019-04-10T09:01:23.036Z,984.48
2019-04-10T09:02:22.846Z,984.51
2019-04-10T09:03:22.843Z,984.49
2019-04-10T09:04:22.838Z,984.45
2019-04-10T09:05:23.793Z,984.46
2019-04-10T09:06:23.089Z,984.47
2019-04-10T09:07:22.850Z,984.44
2019-04-10T09:08:22.826Z,984.44
2019-04-10T09:09:23.661Z,984.47
2019-04-10T09:10:22.817Z,984.47
2019-04-10T09:11:26.161Z,984.43
2019-04-10T09:12:23.947Z,984.48
2019-04-10T09:13:22.811Z,984.45
2019-04-10T09:14:23.167Z,984.47
2019-04-10T09:15:23.526Z,984.5
2019-04-10T09:16:22.802Z,984.49
2019-04-10T09:17:22.874Z,984.5
2019-04-10T09:18:23.144Z,984.48
2019-04-10T09:19:22.800Z,984.49
2019-04-10T09:20:22.787Z,984.52
2019-04-10T09:21:23.685Z,984.5
2019-04-10T09:22:22.789Z,984.5
2019-04-10T09:23:32.874Z,984.49
2019-04-10T09:24:23.691Z,984.51
2019-04-10T09:25:22.946Z,984.54
2019-04-10T09:26:22.772Z,984.51
2019-04-10T09:27:22.771Z,984.53
2019-04-10T09:28:22.768Z,984.52
2019-04-10T09:29:24.185Z,984.5
2019-04-10T09:30:22.764Z,984.53
2019-04-10T09:31:23.845Z,984.52
2019-04-10T09:32:22.762Z,984.52
2019-04-10T09:33:26.542Z,984.55
2019-04-10T09:34:23.397Z,984.5
2019-04-10T09:35:22.756Z,984.53
2019-04-10T09:36:22.765Z,984.54
2019-04-10T09:37:22.750Z,984.53
2019-04-10T09:38:22.940Z,984.58
2019-04-10T09:39:23.313Z,984.6
2019-04-10T09:40:22.742Z,984.6
2019-04-10T09:41:22.736Z,984.58
2019-04-10T09:42:23.583Z,984.51
2019-04-10T09:43:23.129Z,984.56
2019-04-10T09:44:22.942Z,984.57
2019-04-10T09:45:24.940Z,984.55
2019-04-10T09:46:22.737Z,984.54
2019-04-10T09:47:22.817Z,984.55
2019-04-10T09:48:22.723Z,984.49
2019-04-10T09:49:32.549Z,984.54
2019-04-10T09:50:23.411Z,984.55
2019-04-10T09:51:23.562Z,984.55
2019-04-10T09:52:23.683Z,984.58
2019-04-10T09:53:22.709Z,984.56
2019-04-10T09:54:23.705Z,984.53
2019-04-10T09:55:22.780Z,984.54
2019-04-10T09:56:22.703Z,984.55
2019-04-10T09:57:22.704Z,984.55
2019-04-10T09:58:22.701Z,984.57
2019-04-10T09:59:32.835Z,984.6
2019-04-10T10:00:23.375Z,984.57
2019-04-10T10:01:22.694Z,984.62
2019-04-10T10:02:23.197Z,984.58
2019-04-10T10:03:22.691Z,984.55
2019-04-10T10:04:23.627Z,984.52
2019-04-10T10:05:22.706Z,984.54
2019-04-10T10:06:28.654Z,984.53
2019-04-10T10:07:22.692Z,984.48
2019-04-10T10:08:22.679Z,984.45
2019-04-10T10:09:23.784Z,984.48
2019-04-10T10:10:22.724Z,984.46
2019-04-10T10:11:22.678Z,984.45
2019-04-10T10:12:23.579Z,984.43
2019-04-10T10:13:23.523Z,984.43
2019-04-10T10:14:23.061Z,984.46
2019-04-10T10:15:22.687Z,984.37
2019-04-10T10:16:23.782Z,984.43
2019-04-10T10:17:22.669Z,984.43
2019-04-10T10:18:23.458Z,984.45
2019-04-10T10:19:23.531Z,984.44
2019-04-10T10:20:23.741Z,984.47
2019-04-10T10:21:22.661Z,984.47
2019-04-10T10:22:23.146Z,984.41
2019-04-10T10:23:22.660Z,984.44
2019-04-10T10:24:22.660Z,984.44
2019-04-10T10:25:23.496Z,984.4
2019-04-10T10:26:23.605Z,984.41
2019-04-10T10:27:23.350Z,984.43
2019-04-10T10:28:22.846Z,984.44
2019-04-10T10:29:23.607Z,984.48
2019-04-10T10:30:23.102Z,984.44
2019-04-10T10:31:22.650Z,984.46
2019-04-10T10:32:22.642Z,984.44
2019-04-10T10:33:23.656Z,984.48
2019-04-10T10:34:22.701Z,984.45
2019-04-10T10:35:23.120Z,984.52
2019-04-10T10:36:34.488Z,984.48
2019-04-10T10:37:22.632Z,984.52
2019-04-10T10:38:23.141Z,984.45
2019-04-10T10:39:23.029Z,984.47
2019-04-10T10:40:23.426Z,984.48
2019-04-10T10:41:22.634Z,984.51
2019-04-10T10:42:23.367Z,984.47
2019-04-10T10:43:22.661Z,984.5
2019-04-10T10:44:23.705Z,984.48
2019-04-10T10:45:22.876Z,984.52
2019-04-10T10:46:23.067Z,984.53
2019-04-10T10:47:22.617Z,984.55
2019-04-10T10:48:22.612Z,984.53
2019-04-10T10:49:22.613Z,984.58
2019-04-10T10:50:23.550Z,984.52
2019-04-10T10:51:22.646Z,984.51
2019-04-10T10:52:23.394Z,984.57
2019-04-10T10:53:22.605Z,984.58
2019-04-10T10:54:23.080Z,984.54
2019-04-10T10:55:23.275Z,984.56
2019-04-10T10:56:22.597Z,984.58
2019-04-10T10:57:22.777Z,984.52
2019-04-10T10:58:23.771Z,984.53
2019-04-10T10:59:22.594Z,984.48
2019-04-10T11:00:23.079Z,984.5
2019-04-10T11:01:22.591Z,984.52
2019-04-10T11:02:22.592Z,984.52
2019-04-10T11:03:22.588Z,984.56
2019-04-10T11:04:23.222Z,984.52
2019-04-10T11:05:23.140Z,984.55
2019-04-10T11:06:22.713Z,984.6
2019-04-10T11:07:22.769Z,984.61
2019-04-10T11:08:23.941Z,984.58
2019-04-10T11:09:22.575Z,984.58
2019-04-10T11:10:24.365Z,984.55
2019-04-10T11:11:22.671Z,984.55
2019-04-10T11:12:22.574Z,984.59
2019-04-10T11:13:22.649Z,984.55
2019-04-10T11:14:23.638Z,984.55
2019-04-10T11:15:23.779Z,984.56
2019-04-10T11:16:23.183Z,984.57
2019-04-10T11:17:22.568Z,984.59
2019-04-10T11:18:22.564Z,984.56
2019-04-10T11:19:23.508Z,984.6
2019-04-10T11:20:23.764Z,984.6
2019-04-10T11:21:22.864Z,984.63
2019-04-10T11:22:24.292Z,984.62
2019-04-10T11:23:22.564Z,984.59
2019-04-10T11:24:22.811Z,984.62
2019-04-10T11:25:23.511Z,984.58
2019-04-10T11:26:24.144Z,984.56
2019-04-10T11:27:22.967Z,984.57
2019-04-10T11:28:28.581Z,984.61
2019-04-10T11:29:22.565Z,984.61
2019-04-10T11:30:22.567Z,984.6
2019-04-10T11:31:23.750Z,984.62
2019-04-10T11:33:35.230Z,984.58
2019-04-10T11:34:35.599Z,984.58
2019-04-10T11:35:35.227Z,984.61
2019-04-10T11:36:36.147Z,984.6
2019-04-10T11:37:43.391Z,984.64
2019-04-10T11:40:01.016Z,984.62
2019-04-10T11:42:15.145Z,984.59
2019-04-10T11:43:15.145Z,984.62
2019-04-10T11:44:17.061Z,984.6
2019-04-10T11:45:16.585Z,984.6
2019-04-10T11:47:36.347Z,984.58
2019-04-10T11:49:53.321Z,984.59
2019-04-10T11:50:53.445Z,984.61
2019-04-10T11:53:17.077Z,984.56
2019-04-10T11:54:15.202Z,984.56
2019-04-10T11:55:19.371Z,984.58
2019-04-10T11:56:13.769Z,984.58
2019-04-10T11:58:29.606Z,984.63
2019-04-10T11:59:32.826Z,984.6
2019-04-10T12:00:30.700Z,984.61
2019-04-10T12:03:01.428Z,984.6
2019-04-10T12:04:02.681Z,984.62
2019-04-10T12:05:07.344Z,984.59
2019-04-10T12:12:03.960Z,984.67
2019-04-10T12:13:03.980Z,984.63
2019-04-10T12:14:04.935Z,984.66
2019-04-10T12:15:04.036Z,984.65
2019-04-10T12:16:05.050Z,984.65
2019-04-10T12:17:03.951Z,984.63
2019-04-10T12:18:04.436Z,984.62
2019-04-10T12:19:04.681Z,984.6
2019-04-10T12:20:04.795Z,984.62
2019-04-10T12:21:03.950Z,984.57
2019-04-10T12:22:03.946Z,984.6
2019-04-10T12:23:04.931Z,984.62
2019-04-10T12:24:03.947Z,984.54
2019-04-10T12:25:04.804Z,984.6
2019-04-10T12:26:05.552Z,984.51
2019-04-10T12:27:04.495Z,984.54
2019-04-10T12:28:03.939Z,984.53
2019-04-10T12:29:04.441Z,984.57
2019-04-10T12:30:04.775Z,984.58
2019-04-10T12:31:03.938Z,984.57
2019-04-10T12:32:04.152Z,984.57
2019-04-10T12:33:03.934Z,984.55
2019-04-10T12:34:03.933Z,984.54
2019-04-10T12:35:04.665Z,984.56
2019-04-10T12:36:04.529Z,984.57
2019-04-10T12:37:03.926Z,984.55
2019-04-10T12:38:08.007Z,984.58
2019-04-10T12:39:03.927Z,984.59
2019-04-10T12:40:03.925Z,984.58
2019-04-10T12:41:03.925Z,984.53
2019-04-10T12:42:03.969Z,984.56
2019-04-10T12:43:04.920Z,984.52
2019-04-10T12:44:03.918Z,984.56
2019-04-10T12:45:04.810Z,984.58
2019-04-10T12:46:04.530Z,984.61
2019-04-10T12:47:03.913Z,984.59
2019-04-10T12:48:04.157Z,984.57
2019-04-10T12:49:03.911Z,984.55